Vera, Texas
Current Conditions -  °F | °C
As of 1:35 PM on Sunday 21 Dec 2014 (Local Time) from KF05 Reporting Station
Overcast Overcast  
Wind Chill: 57°   Ceiling: 3200
Heat Index: 57°   Visibility: 10mi
Dew Point: 42°   Wind: 18mph
Humidity: 59%   Direction: 160°SSE
Pressure: 29.78"   Gusts: 24mph
Location:  33.6337°N, 99.8039°W
Report Text: KF05 211935Z AUTO 16016G21KT 10SM SCT024 OVC032 14/06 A2978 RMK AO1 T01380058
Loading
Personal Weather Stations






























Interactive Weather Map New forecast layout! Learn more

10-Day Weather Forecast

Advertisements
Track Severe Weather on mobile